Aérodrome :
LOGIN :

S'inscrire | Disclaimer

   EN    FR    IT 

 










Légende :    VFR   VFR Marginal   IFR   IFR Intensif   IFR Très Intensif
Visi : 
Plafond : 
>= 8 km
>= 3000ft
5 à 8 km
1000 à 3000 ft
1500m à 5 km
500 à 1000 ft
800 à 1500m
200 à 500 ft
< 800m
< 200 ft
Symboles :   Orages  Brouillard  Fortes neiges  Fortes précipitations  Vent > 20 kt
SIGMETs :   Divers  Orages  Givrage  Turbulence  Onde Orograph.  Cendres Volcan.






- Altitude de l'aérodrome : 75 ft
- Code IATA : MRH


EGYM - RAF Marham

DERNIER METAR :
  • 250250Z 13006KT 8000 HZ SKC 15/11 Q1017 RMK BLU

METARs EXPIRÉS :
  • 250220Z AUTO 13006KT 9999 NCD 15/11 Q1017
  • 250150Z AUTO 12007KT 9999 NCD 15/11 Q1017
  • 250120Z AUTO 13005KT 9999 NCD 15/12 Q1017
  • 250050Z AUTO 14004KT 9999 NCD 16/11 Q1017
  • 242350Z AUTO 13004KT 9999 NCD 17/11 Q1017
  • 242250Z 12006KT 9999 SKC 18/11 Q1018 RMK BLU

Prévision TAF périmée.



MET'MAP, la Météo Aéronautique d'un coup d'oeil ! - Copyright ORBIFLY Décembre 2007 - Disclaimer

ORBIFLY MET'MAP TEAM :

Programmation & Développement : Alexandra Zaïnal
Sur une idée originale de : Baudouin d'Aumeries
Soutien technique & logistique : Manuel Goepfert
Assistance : Marc-Olivier Méhu




SOURCES & CREDITS :

   NOAA